Time;durP1;ratioP1;P1;durP2;ratioP2;P2;SDS_P1;SDS_P2;PMS_P1;PMS_P2;Temp;Humidity;BMP_temperature;BMP_pressure;BME280_temperature;BME280_humidity;BME280_pressure;Samples;Min_cycle;Max_cycle;Signal;HPM_P1;HPM_P2
2022/04/08 00:00:12;;;;;;;8.50;3.95;;;;;;;;;;6118071;23;20014;-50
2022/04/08 00:02:40;;;;;;;7.60;3.15;;;;;;;;;;6117362;23;20022;-51
2022/04/08 00:05:08;;;;;;;7.43;1.83;;;;;;;;;;6118930;23;20562;-55
2022/04/08 00:07:33;;;;;;;7.15;3.35;;;;;;;;;;6117096;23;20021;-54
2022/04/08 00:09:58;;;;;;;13.68;2.70;;;;;;;;;;6118725;23;20065;-54
2022/04/08 00:12:24;;;;;;;6.20;1.90;;;;;;;;;;6116540;23;20081;-51
2022/04/08 00:14:49;;;;;;;6.70;2.10;;;;;;;;;;6118909;23;20078;-53
2022/04/08 00:17:14;;;;;;;6.90;3.13;;;;;;;;;;6115501;23;20029;-52
2022/04/08 00:19:39;;;;;;;4.03;1.88;;;;;;;;;;6120240;23;20617;-50
2022/04/08 00:22:05;;;;;;;4.60;1.85;;;;;;;;;;6119656;23;20026;-49
2022/04/08 00:24:31;;;;;;;5.85;2.17;;;;;;;;;;6118793;23;20018;-51
2022/04/08 00:26:56;;;;;;;8.02;2.15;;;;;;;;;;6120234;23;20017;-52
2022/04/08 00:29:21;;;;;;;7.20;3.47;;;;;;;;;;6120364;23;20018;-53
2022/04/08 00:31:47;;;;;;;4.72;2.63;;;;;;;;;;6119748;23;20006;-50
2022/04/08 00:34:12;;;;;;;5.00;2.35;;;;;;;;;;6118887;23;20086;-51
2022/04/08 00:36:37;;;;;;;3.95;2.22;;;;;;;;;;6119987;23;20014;-48
2022/04/08 00:39:03;;;;;;;11.05;2.70;;;;;;;;;;6118763;23;20580;-50
2022/04/08 00:41:29;;;;;;;5.63;1.85;;;;;;;;;;6119739;23;20013;-50
2022/04/08 00:43:54;;;;;;;7.53;2.58;;;;;;;;;;6118601;23;20516;-49
2022/04/08 00:46:19;;;;;;;4.97;1.77;;;;;;;;;;6119096;23;20504;-52
2022/04/08 00:48:44;;;;;;;4.53;1.88;;;;;;;;;;6118925;23;20037;-48
2022/04/08 00:51:10;;;;;;;7.22;2.33;;;;;;;;;;6119921;23;20014;-50
2022/04/08 00:53:36;;;;;;;10.75;4.05;;;;;;;;;;6120030;23;20025;-52
2022/04/08 00:56:03;;;;;;;9.38;2.03;;;;;;;;;;6119747;23;20022;-48
2022/04/08 00:58:30;;;;;;;5.63;1.95;;;;;;;;;;6119148;23;20559;-53
2022/04/08 01:00:55;;;;;;;10.68;2.20;;;;;;;;;;6119538;23;20002;-51
2022/04/08 01:03:20;;;;;;;3.83;1.80;;;;;;;;;;6119118;23;20112;-52
2022/04/08 01:05:47;;;;;;;3.08;1.73;;;;;;;;;;6119637;23;20044;-53
2022/04/08 01:08:12;;;;;;;7.00;1.90;;;;;;;;;;6119840;23;20010;-54
2022/04/08 01:10:40;;;;;;;4.18;1.65;;;;;;;;;;6119328;23;20065;-51
2022/04/08 01:13:06;;;;;;;4.82;1.90;;;;;;;;;;6119741;23;20016;-54
2022/04/08 01:15:31;;;;;;;4.93;2.05;;;;;;;;;;6118631;23;20030;-51
2022/04/08 01:17:56;;;;;;;6.10;1.88;;;;;;;;;;6120097;23;20021;-51
2022/04/08 01:20:22;;;;;;;4.65;2.85;;;;;;;;;;6118416;23;20014;-51
2022/04/08 01:22:47;;;;;;;2.30;2.10;;;;;;;;;;6118808;23;20018;-52
2022/04/08 01:25:12;;;;;;;6.18;2.13;;;;;;;;;;6117599;23;20014;-50
2022/04/08 01:27:38;;;;;;;4.07;1.65;;;;;;;;;;6117413;23;20037;-51
2022/04/08 01:30:05;;;;;;;3.78;2.20;;;;;;;;;;6118870;23;20078;-53
2022/04/08 01:32:30;;;;;;;5.18;2.22;;;;;;;;;;6117259;23;20043;-51
2022/04/08 01:34:55;;;;;;;3.95;1.67;;;;;;;;;;6119519;23;20036;-52
2022/04/08 01:37:20;;;;;;;9.65;3.53;;;;;;;;;;6117189;23;20034;-53
2022/04/08 01:39:46;;;;;;;6.63;1.67;;;;;;;;;;6119780;23;20017;-54
2022/04/08 01:42:11;;;;;;;3.60;1.67;;;;;;;;;;6117304;23;20162;-53
2022/04/08 01:44:37;;;;;;;5.25;2.15;;;;;;;;;;6119309;23;20026;-52
2022/04/08 01:47:02;;;;;;;2.75;1.60;;;;;;;;;;6119238;23;20022;-53
2022/04/08 01:49:28;;;;;;;4.53;1.75;;;;;;;;;;6118529;23;20053;-51
2022/04/08 01:51:53;;;;;;;5.03;1.52;;;;;;;;;;6119109;23;20146;-52
2022/04/08 01:54:18;;;;;;;6.53;2.47;;;;;;;;;;6116815;23;20022;-51
2022/04/08 01:56:43;;;;;;;1.85;1.60;;;;;;;;;;6119378;23;20014;-50
2022/04/08 01:59:09;;;;;;;3.40;1.90;;;;;;;;;;6118843;23;20069;-52
2022/04/08 02:01:34;;;;;;;6.75;1.92;;;;;;;;;;6118713;23;20013;-49
2022/04/08 02:03:59;;;;;;;4.18;2.05;;;;;;;;;;6111229;23;20067;-50
2022/04/08 02:06:25;;;;;;;7.35;2.00;;;;;;;;;;6117036;23;20045;-53
2022/04/08 02:08:50;;;;;;;4.85;1.85;;;;;;;;;;6119851;23;20082;-48
2022/04/08 02:11:15;;;;;;;4.55;2.20;;;;;;;;;;6116802;23;20021;-53
2022/04/08 02:13:41;;;;;;;6.97;1.77;;;;;;;;;;6118682;23;20010;-52
2022/04/08 02:16:06;;;;;;;5.30;1.98;;;;;;;;;;6117170;23;20022;-52
2022/04/08 02:18:31;;;;;;;3.28;1.52;;;;;;;;;;6118333;23;20021;-49
2022/04/08 02:20:57;;;;;;;9.02;1.50;;;;;;;;;;6117280;23;20010;-52
2022/04/08 02:23:22;;;;;;;8.60;1.60;;;;;;;;;;6118065;23;20030;-50
2022/04/08 02:25:47;;;;;;;4.28;1.55;;;;;;;;;;6112549;23;20014;-51
2022/04/08 02:28:13;;;;;;;3.67;1.70;;;;;;;;;;6118748;23;20077;-52
2022/04/08 02:30:38;;;;;;;24.77;4.20;;;;;;;;;;6118389;23;20018;-50
2022/04/08 02:33:04;;;;;;;6.32;1.73;;;;;;;;;;6119745;23;20037;-52
2022/04/08 02:35:30;;;;;;;5.65;2.45;;;;;;;;;;6116717;23;20783;-51
2022/04/08 02:37:55;;;;;;;4.28;1.67;;;;;;;;;;6119546;23;20834;-49
2022/04/08 02:40:20;;;;;;;3.60;1.65;;;;;;;;;;6117462;23;20058;-51
2022/04/08 02:42:45;;;;;;;2.03;1.90;;;;;;;;;;6118146;23;20025;-51
2022/04/08 02:45:11;;;;;;;6.97;1.77;;;;;;;;;;6119541;23;20531;-51
2022/04/08 02:47:40;;;;;;;8.25;1.90;;;;;;;;;;6117549;23;20406;-52
2022/04/08 02:50:05;;;;;;;3.47;1.60;;;;;;;;;;6119468;23;20014;-49
2022/04/08 02:52:30;;;;;;;7.65;2.22;;;;;;;;;;6116586;23;20740;-49
2022/04/08 02:54:56;;;;;;;4.05;1.38;;;;;;;;;;6119761;23;20010;-50
2022/04/08 02:57:21;;;;;;;5.13;1.90;;;;;;;;;;6116935;23;20018;-53
2022/04/08 02:59:46;;;;;;;7.00;2.50;;;;;;;;;;6118348;23;20017;-50
2022/04/08 03:02:12;;;;;;;6.03;1.80;;;;;;;;;;6118169;23;20026;-50
2022/04/08 03:04:37;;;;;;;4.68;2.25;;;;;;;;;;6117865;23;20171;-53
2022/04/08 03:07:03;;;;;;;6.50;2.05;;;;;;;;;;6119583;23;20021;-48
2022/04/08 03:09:29;;;;;;;2.88;2.03;;;;;;;;;;6116776;23;20014;-49
2022/04/08 03:11:54;;;;;;;7.03;1.92;;;;;;;;;;6120295;23;20412;-50
2022/04/08 03:14:19;;;;;;;5.07;1.95;;;;;;;;;;6115333;23;20056;-51
2022/04/08 03:16:45;;;;;;;5.20;2.00;;;;;;;;;;6119688;23;20036;-52
2022/04/08 03:19:10;;;;;;;7.13;1.50;;;;;;;;;;6116141;23;20640;-55
2022/04/08 03:21:36;;;;;;;3.10;1.67;;;;;;;;;;6117763;23;20010;-53
2022/04/08 03:24:03;;;;;;;11.60;2.10;;;;;;;;;;6115469;23;20038;-51
2022/04/08 03:26:28;;;;;;;9.02;1.85;;;;;;;;;;6117390;23;20464;-52
2022/04/08 03:28:54;;;;;;;10.77;4.18;;;;;;;;;;6117829;23;20796;-51
2022/04/08 03:31:19;;;;;;;5.70;1.75;;;;;;;;;;6117381;23;20021;-50
2022/04/08 03:33:44;;;;;;;4.93;2.60;;;;;;;;;;6116875;23;20013;-49
2022/04/08 03:36:09;;;;;;;7.63;2.00;;;;;;;;;;6118312;23;20010;-52
2022/04/08 03:38:35;;;;;;;10.80;1.63;;;;;;;;;;6116668;23;20052;-51
2022/04/08 03:41:00;;;;;;;5.43;2.28;;;;;;;;;;6117432;23;20018;-48
2022/04/08 03:43:27;;;;;;;5.43;2.33;;;;;;;;;;6117099;23;20049;-50
2022/04/08 03:45:52;;;;;;;2.95;2.15;;;;;;;;;;6118903;23;20085;-50
2022/04/08 03:48:18;;;;;;;6.85;2.05;;;;;;;;;;6116562;23;20476;-51
2022/04/08 03:50:43;;;;;;;6.35;1.75;;;;;;;;;;6118676;23;20014;-49
2022/04/08 03:53:12;;;;;;;6.18;2.08;;;;;;;;;;6116975;23;20041;-51
2022/04/08 03:55:37;;;;;;;6.18;1.88;;;;;;;;;;6118003;23;20045;-50
2022/04/08 03:58:03;;;;;;;7.32;2.13;;;;;;;;;;6117905;23;20017;-52
2022/04/08 04:00:28;;;;;;;11.10;2.22;;;;;;;;;;6117448;23;20029;-52
2022/04/08 04:02:53;;;;;;;10.95;2.03;;;;;;;;;;6117661;23;20029;-53
2022/04/08 04:05:19;;;;;;;6.68;2.10;;;;;;;;;;6117537;23;20073;-52
2022/04/08 04:07:44;;;;;;;4.80;2.10;;;;;;;;;;6116591;23;20006;-48
2022/04/08 04:10:11;;;;;;;6.68;1.95;;;;;;;;;;6118445;23;20093;-49
2022/04/08 04:12:37;;;;;;;5.22;2.25;;;;;;;;;;6116456;23;20379;-50
2022/04/08 04:15:04;;;;;;;3.95;1.73;;;;;;;;;;6118138;23;20021;-52
2022/04/08 04:17:29;;;;;;;9.35;2.78;;;;;;;;;;6115272;23;20014;-54
2022/04/08 04:19:54;;;;;;;11.90;2.05;;;;;;;;;;6118638;23;20045;-49
2022/04/08 04:22:20;;;;;;;12.95;2.40;;;;;;;;;;6115425;23;20034;-50
2022/04/08 04:24:45;;;;;;;4.32;2.15;;;;;;;;;;6118652;23;20020;-52
2022/04/08 04:27:10;;;;;;;5.93;2.17;;;;;;;;;;6115315;23;20045;-51
2022/04/08 04:29:36;;;;;;;3.90;2.75;;;;;;;;;;6118438;23;20018;-52
2022/04/08 04:32:03;;;;;;;3.25;2.05;;;;;;;;;;6115152;23;20016;-52
2022/04/08 04:34:28;;;;;;;8.88;2.40;;;;;;;;;;6117096;23;20018;-55
2022/04/08 04:36:54;;;;;;;5.30;2.25;;;;;;;;;;6117260;23;20306;-50
2022/04/08 04:39:19;;;;;;;6.20;2.50;;;;;;;;;;6117785;23;20022;-50
2022/04/08 04:41:44;;;;;;;5.70;2.00;;;;;;;;;;6117297;23;20026;-50
2022/04/08 04:44:09;;;;;;;27.05;3.10;;;;;;;;;;6118505;23;20516;-54
2022/04/08 04:46:35;;;;;;;4.28;2.17;;;;;;;;;;6117503;23;20989;-51
2022/04/08 04:49:00;;;;;;;5.95;2.00;;;;;;;;;;6119118;23;20010;-49
2022/04/08 04:51:26;;;;;;;7.65;2.72;;;;;;;;;;6113790;23;20404;-54
2022/04/08 04:53:51;;;;;;;6.78;2.28;;;;;;;;;;6119055;23;20014;-50
2022/04/08 04:56:17;;;;;;;10.43;2.38;;;;;;;;;;6114820;23;20017;-50
2022/04/08 04:58:42;;;;;;;8.27;2.30;;;;;;;;;;6119032;23;20037;-52
2022/04/08 05:01:07;;;;;;;5.40;1.77;;;;;;;;;;6118404;23;20014;-51
2022/04/08 05:03:33;;;;;;;4.10;2.13;;;;;;;;;;6117158;23;20111;-53
2022/04/08 05:05:58;;;;;;;6.68;1.83;;;;;;;;;;6120338;23;20160;-51
2022/04/08 05:08:23;;;;;;;3.42;2.10;;;;;;;;;;6118305;23;20018;-50
2022/04/08 05:10:48;;;;;;;5.45;2.20;;;;;;;;;;6119184;23;20018;-52
2022/04/08 05:13:14;;;;;;;6.72;2.60;;;;;;;;;;6119556;23;20670;-49
2022/04/08 05:15:42;;;;;;;6.00;2.80;;;;;;;;;;6117770;23;20022;-51
2022/04/08 05:18:08;;;;;;;6.43;2.55;;;;;;;;;;6120035;23;20105;-53
2022/04/08 05:20:33;;;;;;;5.57;2.97;;;;;;;;;;6117843;23;20022;-51
2022/04/08 05:22:58;;;;;;;11.73;3.10;;;;;;;;;;6119314;23;20074;-52
2022/04/08 05:25:24;;;;;;;6.03;2.40;;;;;;;;;;6116240;23;20037;-50
2022/04/08 05:27:51;;;;;;;6.32;2.40;;;;;;;;;;6119899;23;20033;-49
2022/04/08 05:30:17;;;;;;;7.07;2.38;;;;;;;;;;6117731;23;20018;-50
2022/04/08 05:32:42;;;;;;;7.32;2.90;;;;;;;;;;6119092;23;20010;-51
2022/04/08 05:35:08;;;;;;;9.88;3.60;;;;;;;;;;6119401;23;20033;-51
2022/04/08 05:37:40;;;;;;;8.65;3.13;;;;;;;;;;6118520;23;20122;-48
2022/04/08 05:40:06;;;;;;;8.10;3.08;;;;;;;;;;6118713;23;20022;-54
2022/04/08 05:42:31;;;;;;;5.40;2.75;;;;;;;;;;6119285;23;20029;-50
2022/04/08 05:44:56;;;;;;;8.60;3.20;;;;;;;;;;6118908;23;20013;-52
2022/04/08 05:47:21;;;;;;;7.40;2.53;;;;;;;;;;6118620;23;20022;-50
2022/04/08 05:49:46;;;;;;;8.68;3.53;;;;;;;;;;6118900;23;20036;-51
2022/04/08 05:52:12;;;;;;;9.85;3.38;;;;;;;;;;6119996;23;20010;-51
2022/04/08 05:54:37;;;;;;;7.63;3.78;;;;;;;;;;6115799;23;20009;-51
2022/04/08 05:57:02;;;;;;;9.73;2.63;;;;;;;;;;6119479;23;20010;-52
2022/04/08 05:59:28;;;;;;;9.60;3.80;;;;;;;;;;6118550;23;20018;-51
2022/04/08 06:01:54;;;;;;;10.10;4.15;;;;;;;;;;6118358;23;20029;-49
2022/04/08 06:04:20;;;;;;;14.70;3.60;;;;;;;;;;6118488;23;20962;-50
2022/04/08 06:06:45;;;;;;;8.35;3.95;;;;;;;;;;6120008;23;20020;-49
2022/04/08 06:09:10;;;;;;;11.35;4.00;;;;;;;;;;6117201;23;20014;-51
2022/04/08 06:11:37;;;;;;;6.18;3.80;;;;;;;;;;6118162;23;20032;-54
2022/04/08 06:14:02;;;;;;;8.45;4.15;;;;;;;;;;6116908;23;20030;-51
2022/04/08 06:16:27;;;;;;;11.52;4.18;;;;;;;;;;6118164;23;20074;-48
2022/04/08 06:18:52;;;;;;;9.23;4.25;;;;;;;;;;6137608;23;20002;-49
2022/04/08 06:21:18;;;;;;;6.03;3.55;;;;;;;;;;6117854;23;20026;-53
2022/04/08 06:23:43;;;;;;;13.10;4.18;;;;;;;;;;6112055;23;20041;-52
2022/04/08 06:26:09;;;;;;;7.07;3.60;;;;;;;;;;6118802;23;20024;-54
2022/04/08 06:28:34;;;;;;;12.10;3.58;;;;;;;;;;6115878;23;20548;-49
2022/04/08 06:30:59;;;;;;;6.75;3.10;;;;;;;;;;6117464;23;20014;-50
2022/04/08 06:33:25;;;;;;;8.65;3.58;;;;;;;;;;6115565;23;20077;-51
2022/04/08 06:35:50;;;;;;;7.05;4.03;;;;;;;;;;6117089;23;20044;-52
2022/04/08 06:38:15;;;;;;;17.08;4.47;;;;;;;;;;6118090;23;20033;-52
2022/04/08 06:40:41;;;;;;;9.15;3.63;;;;;;;;;;6117876;23;20013;-51
2022/04/08 06:43:07;;;;;;;16.92;4.82;;;;;;;;;;6116727;23;20085;-53
2022/04/08 06:45:32;;;;;;;7.63;3.88;;;;;;;;;;6117303;23;20014;-51
2022/04/08 06:47:58;;;;;;;7.63;3.35;;;;;;;;;;6118274;23;20014;-49
2022/04/08 06:50:23;;;;;;;6.07;3.08;;;;;;;;;;6117953;23;20006;-50
2022/04/08 06:52:48;;;;;;;10.52;3.90;;;;;;;;;;6116518;23;20397;-54
2022/04/08 06:55:14;;;;;;;10.50;3.55;;;;;;;;;;6118602;23;20044;-49
2022/04/08 06:57:40;;;;;;;7.07;3.53;;;;;;;;;;6116628;23;20014;-49
2022/04/08 07:00:06;;;;;;;10.32;4.03;;;;;;;;;;6118438;23;20022;-52
2022/04/08 07:02:32;;;;;;;8.45;3.38;;;;;;;;;;6113736;23;20025;-49
2022/04/08 07:04:57;;;;;;;16.42;5.07;;;;;;;;;;6120047;23;20006;-49
2022/04/08 07:07:26;;;;;;;10.32;3.70;;;;;;;;;;6115440;23;20041;-50
2022/04/08 07:09:51;;;;;;;6.60;4.97;;;;;;;;;;6118472;23;20010;-51
2022/04/08 07:12:17;;;;;;;12.52;5.15;;;;;;;;;;6115970;23;20108;-50
2022/04/08 07:14:42;;;;;;;6.53;3.78;;;;;;;;;;6118432;23;20061;-48
2022/04/08 07:17:07;;;;;;;10.02;3.45;;;;;;;;;;6116584;23;20526;-49
2022/04/08 07:19:32;;;;;;;7.72;3.67;;;;;;;;;;6118244;23;20096;-49
2022/04/08 07:21:58;;;;;;;8.40;3.80;;;;;;;;;;6116933;23;20029;-49
2022/04/08 07:24:23;;;;;;;9.75;4.10;;;;;;;;;;6117324;23;20014;-50
2022/04/08 07:26:48;;;;;;;9.40;4.03;;;;;;;;;;6117211;23;20389;-48
2022/04/08 07:29:14;;;;;;;6.82;4.10;;;;;;;;;;6118122;23;20014;-47
2022/04/08 07:31:39;;;;;;;10.65;4.57;;;;;;;;;;6115782;23;20018;-48
2022/04/08 07:34:04;;;;;;;6.10;3.75;;;;;;;;;;6118194;23;20449;-48
2022/04/08 07:36:30;;;;;;;7.57;4.43;;;;;;;;;;6116829;23;20037;-48
2022/04/08 07:38:55;;;;;;;10.60;3.75;;;;;;;;;;6118776;23;20020;-51
2022/04/08 07:41:20;;;;;;;8.20;3.90;;;;;;;;;;6116947;23;20588;-47
2022/04/08 07:43:46;;;;;;;10.88;4.38;;;;;;;;;;6118509;23;20033;-47
2022/04/08 07:46:11;;;;;;;6.70;3.78;;;;;;;;;;6118059;23;20227;-51
2022/04/08 07:48:37;;;;;;;15.55;4.88;;;;;;;;;;6116862;23;20067;-49
2022/04/08 07:51:02;;;;;;;43.85;9.20;;;;;;;;;;6115495;23;20010;-50
2022/04/08 07:53:27;;;;;;;48.47;7.55;;;;;;;;;;6116112;23;20029;-49
2022/04/08 07:55:53;;;;;;;15.93;4.65;;;;;;;;;;6111489;23;20009;-49
2022/04/08 07:58:18;;;;;;;17.20;4.53;;;;;;;;;;6114904;23;20017;-49
2022/04/08 08:00:43;;;;;;;8.98;3.20;;;;;;;;;;6113108;23;20018;-49
2022/04/08 08:03:08;;;;;;;8.52;3.35;;;;;;;;;;6115282;23;20025;-49
2022/04/08 08:05:34;;;;;;;7.90;2.60;;;;;;;;;;6112204;23;20017;-52
2022/04/08 08:08:00;;;;;;;5.63;3.45;;;;;;;;;;6114313;23;20014;-49
2022/04/08 08:10:29;;;;;;;8.85;2.75;;;;;;;;;;6111268;23;20093;-50
2022/04/08 08:12:55;;;;;;;13.65;3.28;;;;;;;;;;6113457;23;20094;-52
2022/04/08 08:15:21;;;;;;;12.50;3.35;;;;;;;;;;6111505;23;20030;-49
2022/04/08 08:17:47;;;;;;;32.45;4.85;;;;;;;;;;6115030;23;20013;-48
2022/04/08 08:20:13;;;;;;;14.90;6.50;;;;;;;;;;6109012;23;20093;-51
2022/04/08 08:22:39;;;;;;;8.55;4.00;;;;;;;;;;6114066;23;20465;-53
2022/04/08 08:25:05;;;;;;;5.47;3.10;;;;;;;;;;6112320;23;20022;-49
2022/04/08 08:27:43;;;;;;;9.57;4.80;;;;;;;;;;6114314;23;20790;-50
2022/04/08 08:30:12;;;;;;;18.40;6.13;;;;;;;;;;6108894;23;20073;-51
2022/04/08 08:32:38;;;;;;;7.45;3.05;;;;;;;;;;6111130;23;20512;-48
2022/04/08 08:35:05;;;;;;;7.05;2.88;;;;;;;;;;6115341;23;20014;-53
2022/04/08 08:37:31;;;;;;;11.63;3.72;;;;;;;;;;6115069;23;20066;-47
2022/04/08 08:39:56;;;;;;;7.88;2.95;;;;;;;;;;6118899;23;20022;-52
2022/04/08 08:42:22;;;;;;;8.05;3.08;;;;;;;;;;6118050;23;20033;-47
2022/04/08 08:44:47;;;;;;;8.93;3.47;;;;;;;;;;6118355;23;20017;-50
2022/04/08 08:47:14;;;;;;;11.45;3.50;;;;;;;;;;6118752;23;20018;-52
2022/04/08 08:49:43;;;;;;;5.13;2.65;;;;;;;;;;6117761;23;20021;-48
2022/04/08 08:52:09;;;;;;;18.92;3.65;;;;;;;;;;6119230;23;20014;-51
2022/04/08 08:54:35;;;;;;;10.13;3.20;;;;;;;;;;6114528;23;20088;-49
2022/04/08 08:57:01;;;;;;;4.10;2.38;;;;;;;;;;6119737;23;20199;-49
2022/04/08 08:59:28;;;;;;;17.67;3.92;;;;;;;;;;6116778;23;20054;-49
2022/04/08 09:01:59;;;;;;;6.85;2.22;;;;;;;;;;6119838;23;20021;-50
2022/04/08 09:04:26;;;;;;;11.15;3.03;;;;;;;;;;6119391;23;20034;-51
2022/04/08 09:14:53;;;;;;;6.75;3.90;;;;;;;;;;6115327;23;20048;-51
2022/04/08 09:17:19;;;;;;;13.35;2.55;;;;;;;;;;6133738;23;20068;-50
2022/04/08 09:19:48;;;;;;;6.50;2.70;;;;;;;;;;6144147;23;20106;-49
2022/04/08 09:22:13;;;;;;;9.55;3.10;;;;;;;;;;6137234;23;20081;-50
2022/04/08 09:24:39;;;;;;;10.77;2.78;;;;;;;;;;6149114;23;20020;-53
2022/04/08 09:27:04;;;;;;;11.25;2.35;;;;;;;;;;6146631;23;20014;-48
2022/04/08 09:29:29;;;;;;;6.95;3.30;;;;;;;;;;6149138;23;20104;-50
2022/04/08 09:31:57;;;;;;;12.15;2.38;;;;;;;;;;6146060;23;21114;-51
2022/04/08 09:34:23;;;;;;;11.15;3.40;;;;;;;;;;6148095;23;20053;-47
2022/04/08 09:36:48;;;;;;;13.85;4.13;;;;;;;;;;6146357;23;20013;-49
2022/04/08 09:39:13;;;;;;;9.00;2.50;;;;;;;;;;6145404;23;20628;-49
2022/04/08 09:41:39;;;;;;;13.18;3.67;;;;;;;;;;6148896;23;20013;-48
2022/04/08 09:44:05;;;;;;;7.00;2.47;;;;;;;;;;6145549;23;20033;-47
2022/04/08 09:46:32;;;;;;;6.65;2.28;;;;;;;;;;6147349;23;20033;-52
2022/04/08 09:48:57;;;;;;;9.45;2.95;;;;;;;;;;6144758;23;20006;-48
2022/04/08 09:51:23;;;;;;;14.43;3.10;;;;;;;;;;6147063;23;20017;-49
2022/04/08 09:53:58;;;;;;;10.73;2.78;;;;;;;;;;6147370;23;20018;-51
2022/04/08 09:56:25;;;;;;;9.75;2.13;;;;;;;;;;6146406;23;20013;-54
2022/04/08 09:58:54;;;;;;;7.32;2.05;;;;;;;;;;6149683;23;20014;-52
2022/04/08 10:01:21;;;;;;;11.57;2.78;;;;;;;;;;6145760;23;20049;-50
2022/04/08 10:03:47;;;;;;;5.03;2.03;;;;;;;;;;6135559;23;20017;-50
2022/04/08 10:06:12;;;;;;;13.15;2.30;;;;;;;;;;6145134;23;20032;-51
2022/04/08 10:08:38;;;;;;;10.73;2.75;;;;;;;;;;6145004;23;20016;-54
2022/04/08 10:11:06;;;;;;;5.07;1.92;;;;;;;;;;6145643;23;20017;-49
2022/04/08 10:13:42;;;;;;;4.25;1.88;;;;;;;;;;6145534;23;20358;-53
2022/04/08 10:16:23;;;;;;;6.70;1.90;;;;;;;;;;6148059;23;20028;-50
2022/04/08 10:18:49;;;;;;;4.25;1.80;;;;;;;;;;6149052;23;20113;-52
2022/04/08 10:21:14;;;;;;;6.88;1.73;;;;;;;;;;6146040;23;20017;-54
2022/04/08 10:23:45;;;;;;;6.00;2.13;;;;;;;;;;6148574;23;20026;-52
2022/04/08 10:26:18;;;;;;;6.93;1.52;;;;;;;;;;6146627;23;20016;-51
2022/04/08 10:28:43;;;;;;;10.68;2.50;;;;;;;;;;6148381;23;20464;-50
2022/04/08 10:31:25;;;;;;;10.68;2.17;;;;;;;;;;6141100;23;20018;-50
2022/04/08 10:33:53;;;;;;;3.88;1.50;;;;;;;;;;6146796;23;20018;-54
2022/04/08 10:36:18;;;;;;;10.52;2.00;;;;;;;;;;6146424;23;20052;-49
2022/04/08 10:38:44;;;;;;;3.42;1.58;;;;;;;;;;6146026;23;20014;-48
2022/04/08 10:41:10;;;;;;;11.13;2.92;;;;;;;;;;6147407;23;20033;-52
2022/04/08 10:43:43;;;;;;;9.73;2.67;;;;;;;;;;6142737;23;20028;-52
2022/04/08 10:46:09;;;;;;;15.93;2.25;;;;;;;;;;6148478;23;20017;-52
2022/04/08 10:48:34;;;;;;;19.75;4.20;;;;;;;;;;6145423;23;20021;-48
2022/04/08 10:51:12;;;;;;;3.45;1.65;;;;;;;;;;6143322;23;20013;-53
2022/04/08 10:53:40;;;;;;;7.95;1.80;;;;;;;;;;6141764;23;20016;-48
2022/04/08 10:56:08;;;;;;;17.52;3.03;;;;;;;;;;6147544;23;20068;-49
2022/04/08 10:58:33;;;;;;;4.78;2.13;;;;;;;;;;6146310;23;20044;-52
2022/04/08 11:00:58;;;;;;;14.50;3.05;;;;;;;;;;6146787;23;20024;-52
2022/04/08 11:03:25;;;;;;;7.82;2.25;;;;;;;;;;6145681;23;20026;-51
2022/04/08 11:05:51;;;;;;;10.63;2.63;;;;;;;;;;6148294;23;20029;-53
2022/04/08 11:08:17;;;;;;;7.60;2.45;;;;;;;;;;6136914;23;20100;-52
2022/04/08 11:10:42;;;;;;;6.20;2.33;;;;;;;;;;6146011;23;20073;-51
2022/04/08 11:13:10;;;;;;;6.65;2.63;;;;;;;;;;6147678;23;20452;-51
2022/04/08 11:15:38;;;;;;;11.30;2.47;;;;;;;;;;6144906;23;20041;-51
2022/04/08 11:18:06;;;;;;;3.95;1.58;;;;;;;;;;6148037;23;20005;-52
2022/04/08 11:20:34;;;;;;;4.18;2.13;;;;;;;;;;6145465;23;20073;-50
2022/04/08 11:22:59;;;;;;;4.50;2.33;;;;;;;;;;6147610;23;20031;-52
2022/04/08 11:25:24;;;;;;;6.88;1.98;;;;;;;;;;6145878;23;20013;-53
2022/04/08 11:28:19;;;;;;;10.38;2.20;;;;;;;;;;6148349;23;20014;-52
2022/04/08 11:30:44;;;;;;;5.13;2.17;;;;;;;;;;6134156;23;20092;-50
2022/04/08 11:33:13;;;;;;;6.18;2.00;;;;;;;;;;6146883;23;20397;-53
2022/04/08 11:35:39;;;;;;;11.95;2.35;;;;;;;;;;6146844;23;20014;-51
2022/04/08 11:38:15;;;;;;;6.82;1.85;;;;;;;;;;6147522;23;20021;-52
2022/04/08 11:40:40;;;;;;;5.63;1.92;;;;;;;;;;6146557;23;20048;-50
2022/04/08 11:43:06;;;;;;;7.07;1.90;;;;;;;;;;6147175;23;20029;-51
2022/04/08 11:45:31;;;;;;;7.28;2.08;;;;;;;;;;6146057;23;20060;-48
2022/04/08 11:47:57;;;;;;;6.50;2.10;;;;;;;;;;6139359;23;20013;-52
2022/04/08 11:50:26;;;;;;;11.45;2.72;;;;;;;;;;6146229;23;20093;-52
2022/04/08 11:52:56;;;;;;;8.20;3.03;;;;;;;;;;6145531;23;20065;-49
2022/04/08 11:55:23;;;;;;;10.77;2.80;;;;;;;;;;6145515;23;20570;-52
2022/04/08 11:57:48;;;;;;;8.05;2.03;;;;;;;;;;6147685;23;20017;-52
2022/04/08 12:00:14;;;;;;;5.47;2.40;;;;;;;;;;6144013;23;20021;-53
2022/04/08 12:02:40;;;;;;;2.65;1.65;;;;;;;;;;6134080;23;20022;-52
2022/04/08 12:05:06;;;;;;;6.82;1.80;;;;;;;;;;6141982;23;20097;-50
2022/04/08 12:07:31;;;;;;;9.48;3.17;;;;;;;;;;6143971;23;20045;-50
2022/04/08 12:09:57;;;;;;;11.55;2.00;;;;;;;;;;6145434;23;20025;-50
2022/04/08 12:12:26;;;;;;;4.07;1.85;;;;;;;;;;6145725;23;20427;-53
2022/04/08 12:14:51;;;;;;;7.33;1.50;;;;;;;;;;6147445;23;20020;-52
2022/04/08 12:17:17;;;;;;;10.07;2.05;;;;;;;;;;6143462;23;20379;-55
2022/04/08 12:19:42;;;;;;;7.35;1.77;;;;;;;;;;6146072;23;20010;-51
2022/04/08 12:22:14;;;;;;;6.70;1.92;;;;;;;;;;6139705;23;20022;-54
2022/04/08 12:24:40;;;;;;;4.20;1.50;;;;;;;;;;6142754;23;20017;-52
2022/04/08 12:27:12;;;;;;;8.07;1.35;;;;;;;;;;6141513;23;20009;-54
2022/04/08 12:29:39;;;;;;;5.47;1.63;;;;;;;;;;6139656;23;20010;-48
2022/04/08 12:32:11;;;;;;;4.38;1.73;;;;;;;;;;6142181;23;20370;-50
2022/04/08 12:34:36;;;;;;;3.75;1.70;;;;;;;;;;6142723;23;20061;-51
2022/04/08 12:37:02;;;;;;;8.18;2.45;;;;;;;;;;6142247;23;20013;-53
2022/04/08 12:39:27;;;;;;;4.97;1.90;;;;;;;;;;6144950;23;20014;-54
2022/04/08 12:41:58;;;;;;;6.90;2.30;;;;;;;;;;6142474;23;20039;-52
2022/04/08 12:44:23;;;;;;;10.77;2.42;;;;;;;;;;6143116;23;20028;-54
2022/04/08 12:46:49;;;;;;;5.82;2.42;;;;;;;;;;6142575;23;20002;-53
2022/04/08 12:49:14;;;;;;;5.57;2.38;;;;;;;;;;6143193;23;20036;-51
2022/04/08 12:51:40;;;;;;;3.00;1.75;;;;;;;;;;6142496;23;20014;-51
2022/04/08 12:54:05;;;;;;;7.85;2.90;;;;;;;;;;6142349;23;20010;-54
2022/04/08 12:56:30;;;;;;;10.65;2.15;;;;;;;;;;6141869;23;20017;-52
2022/04/08 12:58:57;;;;;;;15.32;2.97;;;;;;;;;;6140945;23;20013;-53
2022/04/08 13:01:23;;;;;;;8.63;2.20;;;;;;;;;;6139238;23;20041;-54
2022/04/08 13:03:48;;;;;;;19.80;3.70;;;;;;;;;;6130150;23;20022;-54
2022/04/08 13:06:13;;;;;;;4.82;2.15;;;;;;;;;;6138009;23;20009;-53
2022/04/08 13:08:39;;;;;;;16.85;2.30;;;;;;;;;;6146721;23;20009;-52
2022/04/08 13:11:04;;;;;;;7.13;2.85;;;;;;;;;;6143866;23;20029;-54
2022/04/08 13:13:30;;;;;;;11.25;2.67;;;;;;;;;;6146127;23;20168;-51
2022/04/08 13:15:55;;;;;;;5.63;1.58;;;;;;;;;;6144272;23;20030;-50
2022/04/08 13:18:20;;;;;;;7.70;1.80;;;;;;;;;;6146842;23;20021;-51
2022/04/08 13:20:46;;;;;;;5.90;1.20;;;;;;;;;;6144911;23;20053;-48
2022/04/08 13:23:11;;;;;;;3.17;1.20;;;;;;;;;;6133335;23;20048;-55
2022/04/08 13:25:36;;;;;;;7.53;1.95;;;;;;;;;;6145112;23;20017;-53
2022/04/08 13:28:02;;;;;;;7.10;1.50;;;;;;;;;;6144732;23;20006;-51
2022/04/08 13:30:27;;;;;;;2.40;1.10;;;;;;;;;;6146768;23;20037;-51
2022/04/08 13:32:52;;;;;;;4.40;1.30;;;;;;;;;;6149173;23;20013;-52
2022/04/08 13:35:18;;;;;;;1.52;1.33;;;;;;;;;;6145976;23;20017;-52
2022/04/08 13:37:43;;;;;;;2.70;0.88;;;;;;;;;;6148619;23;20013;-51
2022/04/08 13:40:08;;;;;;;9.70;1.13;;;;;;;;;;6147900;23;20021;-53
2022/04/08 13:42:34;;;;;;;4.38;0.98;;;;;;;;;;6148763;23;20037;-51
2022/04/08 13:44:59;;;;;;;4.38;1.13;;;;;;;;;;6147514;23;20013;-54
2022/04/08 13:47:24;;;;;;;1.90;1.00;;;;;;;;;;6148540;23;20033;-49
2022/04/08 13:49:50;;;;;;;2.40;0.82;;;;;;;;;;6147749;23;20014;-51
2022/04/08 13:52:15;;;;;;;4.03;0.55;;;;;;;;;;6148304;23;20049;-49
2022/04/08 13:54:40;;;;;;;1.85;0.82;;;;;;;;;;6146705;23;20029;-48
2022/04/08 13:57:06;;;;;;;3.13;0.80;;;;;;;;;;6147200;23;20025;-49
2022/04/08 13:59:31;;;;;;;2.63;1.23;;;;;;;;;;6147243;23;20021;-51
2022/04/08 14:01:57;;;;;;;3.33;1.50;;;;;;;;;;6144595;23;20029;-49
2022/04/08 14:04:22;;;;;;;2.97;1.70;;;;;;;;;;6146953;23;20081;-50
2022/04/08 14:06:47;;;;;;;2.00;1.38;;;;;;;;;;6145832;23;20108;-50
2022/04/08 14:09:12;;;;;;;3.80;1.60;;;;;;;;;;6147062;23;20029;-49
2022/04/08 14:11:38;;;;;;;3.60;1.40;;;;;;;;;;6147705;23;20695;-53
2022/04/08 14:14:03;;;;;;;3.05;2.40;;;;;;;;;;6146215;23;20012;-51
2022/04/08 14:16:29;;;;;;;4.57;1.70;;;;;;;;;;6147270;23;20030;-51
2022/04/08 14:18:55;;;;;;;4.95;1.63;;;;;;;;;;6146656;23;20024;-51
2022/04/08 14:21:20;;;;;;;3.78;1.52;;;;;;;;;;6148643;23;20014;-50
2022/04/08 14:23:47;;;;;;;5.93;1.45;;;;;;;;;;6147953;23;20117;-50
2022/04/08 14:26:12;;;;;;;4.55;1.85;;;;;;;;;;6148166;23;20041;-52
2022/04/08 14:28:37;;;;;;;4.82;1.60;;;;;;;;;;6146201;23;20025;-48
2022/04/08 14:31:03;;;;;;;6.20;1.60;;;;;;;;;;6148154;23;20088;-53
2022/04/08 14:33:29;;;;;;;3.88;1.25;;;;;;;;;;6145354;23;20068;-51
2022/04/08 14:35:54;;;;;;;8.07;1.60;;;;;;;;;;6148288;23;20009;-49
2022/04/08 14:38:20;;;;;;;6.85;1.73;;;;;;;;;;6146566;23;20021;-49
2022/04/08 14:40:46;;;;;;;3.95;1.92;;;;;;;;;;6148242;23;20006;-49